Time;durP1;ratioP1;P1;durP2;ratioP2;P2;SDS_P1;SDS_P2;PMS_P1;PMS_P2;Temp;Humidity;BMP_temperature;BMP_pressure;BME280_temperature;BME280_humidity;BME280_pressure;Samples;Min_cycle;Max_cycle;Signal;HPM_P1;HPM_P2
2022/10/11 00:01:48;;;;;;;45.25;31.08;;;;;;;5.25;93.82;100212.78;5146472;27;20509;-49
2022/10/11 00:04:25;;;;;;;55.28;36.55;;;;;;;5.41;94.24;100250.53;5125519;27;20606;-47
2022/10/11 00:07:01;;;;;;;51.88;35.08;;;;;;;5.39;94.40;100249.72;5127356;27;20142;-49
2022/10/11 00:09:39;;;;;;;51.80;34.97;;;;;;;5.37;93.97;100246.28;5126866;27;20385;-49
2022/10/11 00:12:18;;;;;;;46.50;30.90;;;;;;;5.13;94.27;100207.72;5106246;27;20407;-49
2022/10/11 00:14:58;;;;;;;46.30;30.52;;;;;;;5.35;94.40;100247.97;5106189;27;20918;-49
2022/10/11 00:17:41;;;;;;;55.05;39.10;;;;;;;5.33;94.35;100242.84;5064062;27;21075;-50
2022/10/11 00:20:09;;;;;;;57.25;39.67;;;;;;;5.32;94.76;100245.44;5053270;28;20063;-47
2022/10/11 00:22:48;;;;;;;62.47;41.33;;;;;;;5.31;94.26;100243.72;5106166;27;20201;-50
2022/10/11 00:25:15;;;;;;;58.15;39.15;;;;;;;5.29;94.76;100235.13;5094993;28;20122;-46
2022/10/11 00:27:53;;;;;;;65.18;42.75;;;;;;;5.28;94.31;100241.16;5107616;27;20380;-47
2022/10/11 00:30:32;;;;;;;64.03;40.53;;;;;;;5.26;94.60;100237.72;5107504;27;20384;-47
2022/10/11 00:33:10;;;;;;;63.67;40.65;;;;;;;5.06;94.91;100204.28;5107362;27;20387;-53
2022/10/11 00:35:52;;;;;;;71.60;47.03;;;;;;;5.25;94.47;100236.84;5106641;27;20392;-52
2022/10/11 00:38:29;;;;;;;69.88;46.60;;;;;;;5.19;94.76;100231.72;5066571;28;20147;-49
2022/10/11 00:41:05;;;;;;;73.03;46.63;;;;;;;5.13;94.48;100218.03;5103815;27;20132;-52
2022/10/11 00:43:44;;;;;;;70.70;44.88;;;;;;;4.97;94.69;100200.00;5068482;28;20398;-48
2022/10/11 00:46:28;;;;;;;67.35;42.53;;;;;;;5.17;94.47;100235.19;5106426;27;20406;-51
2022/10/11 00:49:12;;;;;;;69.47;43.45;;;;;;;5.16;94.75;100229.16;5125484;27;20797;-47
2022/10/11 00:51:53;;;;;;;71.07;44.38;;;;;;;5.13;94.97;100230.03;5078268;27;20414;-49
2022/10/11 00:54:33;;;;;;;79.45;50.70;;;;;;;4.89;95.02;100190.59;5066017;28;20410;-51
2022/10/11 00:57:24;;;;;;;86.47;54.53;;;;;;;4.88;95.11;100194.91;5087420;27;20974;-50
2022/10/11 01:00:01;;;;;;;77.78;49.33;;;;;;;5.10;95.18;100226.59;5096747;27;20411;-53
2022/10/11 01:02:39;;;;;;;68.65;45.20;;;;;;;4.93;94.86;100194.88;5055475;28;20411;-51
2022/10/11 01:05:17;;;;;;;67.75;41.83;;;;;;;5.16;95.19;100229.16;5065276;28;20402;-52
2022/10/11 01:07:58;;;;;;;56.45;36.95;;;;;;;5.19;95.40;100234.28;5106288;27;20391;-50
2022/10/11 01:10:36;;;;;;;56.13;35.25;;;;;;;5.00;95.29;100197.44;5106479;27;20387;-50
2022/10/11 01:13:51;;;;;;;49.38;32.45;;;;;;;5.20;95.87;100230.00;5106137;27;20400;-49
2022/10/11 01:17:05;;;;;;;40.97;26.25;;;;;;;5.17;95.40;100223.16;5089006;27;20946;-48
2022/10/11 01:19:51;;;;;;;43.35;26.38;;;;;;;5.14;95.58;100233.47;5080731;28;20409;-48
2022/10/11 01:22:51;;;;;;;37.60;23.88;;;;;;;5.15;95.66;100227.44;5065740;28;20379;-51
2022/10/11 01:25:54;;;;;;;40.17;22.92;;;;;;;5.13;95.42;100227.44;5065791;28;20930;-51
2022/10/11 01:29:01;;;;;;;33.10;19.35;;;;;;;5.12;95.25;100222.31;5055130;28;20403;-50
2022/10/11 01:32:16;;;;;;;23.58;14.80;;;;;;;5.13;96.00;100228.34;5107220;27;20171;-52
2022/10/11 01:35:16;;;;;;;22.05;11.57;;;;;;;5.12;95.84;100230.06;5099723;27;20412;-51
2022/10/11 01:38:01;;;;;;;17.38;8.85;;;;;;;5.10;96.04;100232.63;5106666;27;20427;-47
2022/10/11 01:40:47;;;;;;;12.20;6.82;;;;;;;5.10;95.72;100226.59;5086435;27;20916;-48
2022/10/11 01:43:25;;;;;;;12.32;6.35;;;;;;;4.86;96.12;100185.47;5104619;27;20400;-49
2022/10/11 01:46:05;;;;;;;12.05;5.63;;;;;;;5.08;95.75;100223.16;5092215;27;20129;-51
2022/10/11 01:48:47;;;;;;;8.93;5.65;;;;;;;5.08;95.88;100230.91;5046059;28;20403;-48
2022/10/11 01:51:35;;;;;;;13.55;5.20;;;;;;;5.07;96.07;100232.66;5057394;27;20410;-51
2022/10/11 01:54:34;;;;;;;10.40;5.80;;;;;;;5.06;95.54;100223.19;5146845;27;20978;-49
2022/10/11 01:57:39;;;;;;;9.45;5.45;;;;;;;5.06;96.42;100225.78;5107492;27;20368;-50
2022/10/11 02:00:24;;;;;;;8.60;5.57;;;;;;;5.05;95.92;100221.47;5105431;27;20438;-49
2022/10/11 02:03:05;;;;;;;11.15;6.07;;;;;;;5.04;96.16;100218.91;5103350;27;20396;-51
2022/10/11 02:06:11;;;;;;;9.65;6.13;;;;;;;5.03;96.14;100224.91;5087342;27;20992;-50
2022/10/11 02:09:18;;;;;;;10.38;6.63;;;;;;;5.03;95.74;100223.19;5046261;27;20418;-54
2022/10/11 02:12:00;;;;;;;7.95;5.30;;;;;;;5.02;95.75;100223.22;5045431;28;20177;-53
2022/10/11 02:14:43;;;;;;;11.23;5.47;;;;;;;4.87;95.87;100200.91;5107315;27;20902;-47
2022/10/11 02:17:25;;;;;;;10.73;4.95;;;;;;;4.97;95.64;100215.47;5046571;28;21223;-49
2022/10/11 02:20:06;;;;;;;13.55;5.47;;;;;;;4.99;95.69;100230.94;5105970;27;20400;-49
2022/10/11 02:22:46;;;;;;;10.25;6.63;;;;;;;4.96;96.02;100225.81;5107362;27;20376;-54
2022/10/11 02:25:24;;;;;;;12.25;7.25;;;;;;;4.94;96.19;100222.38;5099749;27;1478297;-53
2022/10/11 02:28:12;;;;;;;12.80;7.70;;;;;;;4.93;96.01;100229.22;5086909;27;20764;-50
2022/10/11 02:30:53;;;;;;;14.45;8.27;;;;;;;4.92;95.92;100227.50;5108614;27;20120;-49
2022/10/11 02:33:35;;;;;;;11.93;8.07;;;;;;;4.92;96.05;100229.25;5148423;27;20171;-50
2022/10/11 02:36:26;;;;;;;12.95;8.38;;;;;;;4.88;95.66;100218.09;5066730;28;20433;-48
2022/10/11 02:39:20;;;;;;;12.82;8.32;;;;;;;4.70;95.61;100189.81;5127029;27;20866;-53
2022/10/11 02:42:01;;;;;;;13.00;8.38;;;;;;;4.65;95.75;100184.69;5121037;27;20380;-50
2022/10/11 02:44:52;;;;;;;18.08;8.68;;;;;;;4.78;96.11;100207.81;5086330;27;20405;-50
2022/10/11 02:47:31;;;;;;;13.00;7.68;;;;;;;4.83;96.08;100224.09;5116109;27;20925;-50
2022/10/11 02:50:10;;;;;;;10.10;7.20;;;;;;;4.88;95.75;100230.09;5093251;27;20401;-48
2022/10/11 02:52:48;;;;;;;11.10;6.82;;;;;;;4.88;96.10;100233.53;5069148;27;20398;-54
2022/10/11 02:55:28;;;;;;;10.38;7.07;;;;;;;4.88;96.01;100241.28;5100008;27;20401;-52
2022/10/11 02:58:05;;;;;;;9.43;7.03;;;;;;;4.86;96.11;100226.69;5106305;27;20404;-49
2022/10/11 03:00:43;;;;;;;12.52;6.40;;;;;;;4.89;96.32;100234.41;5106233;27;20384;-49
2022/10/11 03:03:21;;;;;;;14.13;5.97;;;;;;;4.88;96.40;100235.25;5064834;28;20407;-46
2022/10/11 03:05:59;;;;;;;9.32;5.10;;;;;;;4.87;95.95;100236.13;5097323;27;20140;-47
2022/10/11 03:08:38;;;;;;;7.35;4.80;;;;;;;4.84;96.02;100233.56;5051854;28;20411;-49
2022/10/11 03:11:16;;;;;;;8.45;4.70;;;;;;;4.81;96.38;100237.00;5106414;27;20379;-48
2022/10/11 03:13:54;;;;;;;9.30;4.90;;;;;;;4.61;96.05;100205.25;5102294;27;20397;-48
2022/10/11 03:16:31;;;;;;;9.52;4.32;;;;;;;4.75;95.80;100229.28;5057471;28;20399;-47
2022/10/11 03:19:09;;;;;;;12.13;4.68;;;;;;;4.58;95.90;100200.13;5086005;27;20394;-49
2022/10/11 03:21:48;;;;;;;6.93;3.97;;;;;;;4.75;96.15;100229.28;5113857;27;20783;-49
2022/10/11 03:24:23;;;;;;;11.68;4.65;;;;;;;4.77;96.65;100226.69;5054992;27;2161032;-48
2022/10/11 03:27:01;;;;;;;9.95;4.47;;;;;;;4.53;96.16;100192.41;5144957;27;20159;-48
2022/10/11 03:29:38;;;;;;;10.57;5.07;;;;;;;4.72;95.96;100215.53;5100762;27;20396;-48
2022/10/11 03:32:15;;;;;;;14.50;5.50;;;;;;;4.54;96.43;100196.72;5118551;27;20612;-47
2022/10/11 03:34:59;;;;;;;14.20;4.57;;;;;;;4.68;95.94;100217.28;5100242;27;20397;-50
2022/10/11 03:37:38;;;;;;;16.52;5.22;;;;;;;4.42;95.99;100175.28;5085236;27;22670;-49
2022/10/11 03:40:19;;;;;;;10.45;4.72;;;;;;;4.65;95.63;100215.59;5099291;27;20397;-48
2022/10/11 03:42:56;;;;;;;11.85;4.45;;;;;;;4.65;95.77;100217.31;5104993;27;20131;-47
2022/10/11 03:45:32;;;;;;;14.95;4.53;;;;;;;4.60;95.74;100204.44;5104866;27;20419;-52
2022/10/11 03:48:10;;;;;;;15.82;4.53;;;;;;;4.64;95.97;100213.00;5104475;27;20144;-49
2022/10/11 03:50:52;;;;;;;14.48;4.75;;;;;;;4.65;96.02;100204.44;5105497;27;20921;-49
2022/10/11 03:53:30;;;;;;;14.60;5.05;;;;;;;4.60;96.30;100201.00;5098700;27;20403;-49
2022/10/11 03:56:07;;;;;;;12.13;5.03;;;;;;;4.61;96.19;100195.81;5052687;28;20135;-51
2022/10/11 03:58:45;;;;;;;15.23;5.88;;;;;;;4.45;96.01;100167.56;5126659;27;20398;-54
2022/10/11 04:01:22;;;;;;;12.73;5.75;;;;;;;4.67;96.29;100207.84;5098621;27;20133;-48
2022/10/11 04:04:00;;;;;;;11.02;5.68;;;;;;;4.66;95.85;100201.81;5044787;27;1849048;-49
2022/10/11 04:06:40;;;;;;;12.70;6.38;;;;;;;4.65;96.05;100207.84;5065311;28;20410;-49
2022/10/11 04:09:16;;;;;;;17.77;5.80;;;;;;;4.67;95.96;100202.69;5101010;27;1440388;-51
2022/10/11 04:11:56;;;;;;;14.95;6.03;;;;;;;4.46;96.11;100169.25;5087359;27;20761;-52
2022/10/11 04:14:33;;;;;;;14.93;6.03;;;;;;;4.67;96.23;100206.13;5056744;28;20388;-52
2022/10/11 04:17:12;;;;;;;21.13;6.10;;;;;;;4.69;95.88;100212.13;5107358;27;20899;-53
2022/10/11 04:19:49;;;;;;;15.75;6.22;;;;;;;4.66;96.11;100206.13;5107282;27;20387;-50
2022/10/11 04:22:28;;;;;;;12.65;5.85;;;;;;;4.68;95.74;100205.25;5086941;27;20146;-50
2022/10/11 04:25:07;;;;;;;22.17;7.60;;;;;;;4.70;95.32;100210.41;5127925;27;20394;-52
2022/10/11 04:27:45;;;;;;;23.27;7.20;;;;;;;4.71;95.53;100203.56;5107402;27;20791;-50
2022/10/11 04:30:21;;;;;;;13.55;6.40;;;;;;;4.77;95.48;100208.66;5086483;28;20137;-51
2022/10/11 04:32:58;;;;;;;15.35;6.13;;;;;;;4.66;95.50;100190.66;5107323;27;20144;-50
2022/10/11 04:35:35;;;;;;;18.75;6.90;;;;;;;4.70;95.53;100194.97;5106321;27;20674;-49
2022/10/11 04:38:18;;;;;;;18.13;6.13;;;;;;;4.81;95.12;100208.69;5107078;27;20387;-49
2022/10/11 04:41:10;;;;;;;15.25;6.53;;;;;;;4.56;94.73;100163.22;5065860;28;20429;-52
2022/10/11 04:43:47;;;;;;;18.25;6.78;;;;;;;4.91;94.56;100204.34;5102529;27;20915;-50
2022/10/11 04:46:25;;;;;;;80.07;9.30;;;;;;;4.96;94.66;100206.06;5184649;27;20601;-51
2022/10/11 04:49:04;;;;;;;21.88;6.07;;;;;;;4.82;93.94;100169.16;5086301;27;20396;-53
2022/10/11 04:51:42;;;;;;;14.98;5.90;;;;;;;5.08;93.68;100202.56;5065466;28;20406;-50
2022/10/11 04:54:20;;;;;;;15.65;6.07;;;;;;;5.13;94.09;100201.66;5085704;27;20516;-50
2022/10/11 04:56:57;;;;;;;16.42;5.72;;;;;;;5.26;93.52;100201.63;5089143;27;1459959;-50
2022/10/11 04:59:35;;;;;;;21.27;5.82;;;;;;;4.99;92.89;100138.19;5051917;28;20396;-48
2022/10/11 05:02:14;;;;;;;14.88;5.53;;;;;;;5.49;92.36;100204.97;5056929;28;20410;-51
2022/10/11 05:04:51;;;;;;;11.80;5.45;;;;;;;5.67;91.91;100203.97;5092799;27;1378367;-54
2022/10/11 05:07:29;;;;;;;13.48;5.25;;;;;;;5.85;91.23;100209.91;5105620;27;20408;-49
2022/10/11 05:10:06;;;;;;;14.30;6.13;;;;;;;5.85;90.26;100178.94;5065862;27;20222;-53
2022/10/11 05:12:46;;;;;;;14.40;6.82;;;;;;;6.02;89.88;100162.50;5104936;27;20408;-49
2022/10/11 05:15:24;;;;;;;11.82;5.95;;;;;;;6.42;88.85;100207.75;5103242;27;20945;-51
2022/10/11 05:17:59;;;;;;;16.45;7.22;;;;;;;6.80;86.27;100202.19;5088958;27;1399074;-49
2022/10/11 05:20:39;;;;;;;15.27;6.65;;;;;;;7.31;84.20;100200.72;5105935;27;20407;-53
2022/10/11 05:23:19;;;;;;;22.23;5.88;;;;;;;7.89;82.43;100202.50;5094294;27;20560;-51
2022/10/11 05:25:57;;;;;;;13.23;5.45;;;;;;;8.63;79.18;100201.28;5044438;28;20408;-50
2022/10/11 05:28:35;;;;;;;15.23;8.20;;;;;;;9.40;75.56;100200.63;5046656;28;20411;-50
2022/10/11 05:31:13;;;;;;;11.32;5.05;;;;;;;10.06;72.94;100198.22;5063962;27;20910;-53
2022/10/11 05:33:51;;;;;;;10.07;5.05;;;;;;;10.69;69.28;100200.13;5107001;27;20380;-49
2022/10/11 05:36:29;;;;;;;12.70;3.65;;;;;;;11.39;66.60;100191.22;5104459;27;20371;-52
2022/10/11 05:39:07;;;;;;;13.75;4.18;;;;;;;12.11;64.63;100193.31;5093672;27;20501;-52
2022/10/11 05:41:46;;;;;;;8.88;4.25;;;;;;;12.56;62.58;100166.63;5103305;27;20411;-51
2022/10/11 05:44:26;;;;;;;11.15;4.35;;;;;;;13.42;60.36;100194.81;5105043;27;20403;-53
2022/10/11 05:47:06;;;;;;;8.93;3.35;;;;;;;14.07;58.21;100196.63;5109083;27;20445;-51
2022/10/11 05:49:44;;;;;;;7.25;4.00;;;;;;;14.72;55.95;100191.25;5043078;27;20414;-51
2022/10/11 05:52:22;;;;;;;7.95;3.00;;;;;;;15.30;54.05;100196.53;5083908;27;20415;-54
2022/10/11 05:55:02;;;;;;;8.00;3.15;;;;;;;15.87;51.98;100192.16;5059385;28;20411;-53
2022/10/11 05:57:41;;;;;;;9.75;5.10;;;;;;;16.44;49.98;100194.53;5020020;28;20422;-52
2022/10/11 06:00:23;;;;;;;10.23;4.40;;;;;;;16.96;48.43;100198.97;5037715;28;20411;-51
2022/10/11 06:02:59;;;;;;;10.02;3.30;;;;;;;17.48;46.67;100184.69;5059389;28;20401;-51
2022/10/11 06:05:37;;;;;;;8.40;3.13;;;;;;;18.01;44.96;100192.25;5065682;28;20357;-48
2022/10/11 06:08:15;;;;;;;15.30;3.58;;;;;;;18.49;43.83;100179.84;5142054;27;20123;-54
2022/10/11 06:10:52;;;;;;;11.20;5.32;;;;;;;19.00;42.40;100179.38;5106842;27;20882;-48
2022/10/11 06:13:30;;;;;;;6.28;3.03;;;;;;;19.44;41.58;100175.78;5046107;28;20734;-50
2022/10/11 06:16:22;;;;;;;7.80;3.25;;;;;;;19.99;40.33;100175.78;5101402;27;20149;-51
2022/10/11 06:19:21;;;;;;;21.77;5.15;;;;;;;20.72;37.71;100170.88;5110889;27;20405;-49
2022/10/11 06:22:16;;;;;;;8.50;3.67;;;;;;;21.34;36.40;100170.97;5116454;27;20764;-46
2022/10/11 06:25:13;;;;;;;11.50;5.30;;;;;;;21.79;35.46;100172.94;5127150;27;20395;-47
2022/10/11 06:28:04;;;;;;;8.85;3.20;;;;;;;22.25;34.50;100164.28;5118181;27;20399;-47
2022/10/11 06:30:56;;;;;;;7.72;3.25;;;;;;;22.76;33.37;100168.34;5125176;27;20398;-50
2022/10/11 06:34:03;;;;;;;5.97;2.95;;;;;;;23.32;31.92;100168.34;5145602;27;20390;-52
2022/10/11 06:36:55;;;;;;;11.75;3.22;;;;;;;23.69;31.10;100162.78;5087099;27;20778;-52
2022/10/11 06:39:59;;;;;;;9.88;3.35;;;;;;;23.89;30.71;100164.66;5024711;27;20512;-52
2022/10/11 06:43:05;;;;;;;8.18;2.80;;;;;;;23.79;30.22;100139.81;5182397;27;21380;-52
2022/10/11 06:46:02;;;;;;;8.77;3.30;;;;;;;24.19;29.80;100172.78;5108009;27;20331;-52
2022/10/11 06:49:06;;;;;;;4.35;2.80;;;;;;;24.31;29.54;100169.09;5025885;27;20375;-52
2022/10/11 06:51:59;;;;;;;6.63;3.13;;;;;;;24.66;29.34;100167.94;5106917;27;20156;-49
2022/10/11 06:54:53;;;;;;;7.05;2.90;;;;;;;25.24;28.41;100166.44;5189944;27;20542;-50
2022/10/11 06:57:56;;;;;;;6.60;3.20;;;;;;;25.80;27.43;100164.13;5081676;27;20351;-49
2022/10/11 07:01:08;;;;;;;8.30;3.15;;;;;;;26.27;26.90;100164.31;5124334;27;20448;-47
2022/10/11 07:04:00;;;;;;;6.07;3.22;;;;;;;26.36;26.30;100140.31;5086540;27;20488;-48
2022/10/11 07:06:52;;;;;;;7.97;3.40;;;;;;;26.85;26.06;100155.22;5086691;27;20401;-47
2022/10/11 07:09:43;;;;;;;5.80;3.08;;;;;;;27.12;25.62;100157.13;5127250;27;20130;-47
2022/10/11 07:12:37;;;;;;;4.90;3.10;;;;;;;27.46;24.99;100167.25;5170076;27;20396;-52
2022/10/11 07:16:07;;;;;;;8.20;2.83;;;;;;;27.44;24.56;100148.69;5084875;27;20414;-50
2022/10/11 07:19:01;;;;;;;6.57;4.20;;;;;;;27.48;24.39;100152.72;5108464;27;20494;-49
2022/10/11 07:21:58;;;;;;;6.07;2.80;;;;;;;27.17;24.48;100152.19;5081268;27;20573;-52
2022/10/11 07:25:00;;;;;;;6.07;2.63;;;;;;;27.31;24.42;100145.53;5127268;27;20450;-51
2022/10/11 07:27:59;;;;;;;7.35;2.78;;;;;;;27.21;24.04;100155.41;5084415;27;20397;-54
2022/10/11 07:30:55;;;;;;;6.75;2.83;;;;;;;27.05;24.14;100149.88;5171639;27;20831;-50
2022/10/11 07:33:52;;;;;;;6.43;2.67;;;;;;;27.24;23.87;100149.78;5089092;27;20356;-51
2022/10/11 07:36:48;;;;;;;5.97;2.53;;;;;;;27.57;23.88;100143.03;5133608;27;20199;-55
2022/10/11 07:39:40;;;;;;;7.20;3.80;;;;;;;27.93;23.12;100147.41;5127593;27;20341;-54
2022/10/11 07:42:32;;;;;;;3.15;2.70;;;;;;;27.96;23.21;100138.22;5075673;27;20401;-53
2022/10/11 07:45:29;;;;;;;7.82;3.00;;;;;;;27.92;22.98;100145.72;5088100;27;20916;-55
2022/10/11 07:48:23;;;;;;;8.07;3.88;;;;;;;27.96;23.08;100152.44;5086838;27;20398;-49
2022/10/11 07:51:26;;;;;;;9.98;4.55;;;;;;;27.94;22.81;100135.75;5026830;27;20339;-50
2022/10/11 07:54:21;;;;;;;4.22;2.63;;;;;;;28.01;22.66;100139.47;5181115;27;20391;-49
2022/10/11 07:57:15;;;;;;;3.72;2.00;;;;;;;28.15;22.10;100138.97;5130955;27;20929;-53
2022/10/11 08:00:15;;;;;;;4.40;2.50;;;;;;;28.36;22.00;100143.16;5091132;27;20434;-51
2022/10/11 08:02:52;;;;;;;6.57;2.40;;;;;;;28.71;21.96;100139.53;4457122;27;18585205;-50
2022/10/11 08:05:29;;;;;;;7.28;2.90;;;;;;;28.85;22.06;100142.50;4275718;27;24873714;-47
2022/10/11 08:08:25;;;;;;;8.23;4.03;;;;;;;28.85;21.75;100130.94;5117208;27;20422;-51
2022/10/11 08:11:25;;;;;;;5.30;2.58;;;;;;;28.79;21.26;100135.09;5086083;27;20894;-51
2022/10/11 08:14:20;;;;;;;7.60;2.60;;;;;;;28.48;21.80;100131.19;5189861;27;20389;-54
2022/10/11 08:17:14;;;;;;;6.82;3.28;;;;;;;28.55;21.77;100119.72;5146283;27;20242;-53
2022/10/11 08:20:08;;;;;;;7.95;3.58;;;;;;;28.37;22.02;100092.16;5188096;27;20386;-50
2022/10/11 08:23:09;;;;;;;6.93;2.88;;;;;;;28.60;22.11;100116.56;5189847;27;20750;-53
2022/10/11 08:26:08;;;;;;;10.02;3.80;;;;;;;28.98;21.96;100126.00;5086813;27;20404;-55
2022/10/11 08:29:02;;;;;;;6.07;2.67;;;;;;;29.38;21.41;100117.31;5189920;27;20390;-53
2022/10/11 08:31:54;;;;;;;7.40;3.28;;;;;;;29.60;20.95;100115.88;5118129;27;20391;-54
2022/10/11 08:34:51;;;;;;;7.28;3.05;;;;;;;29.55;19.89;100084.22;5146916;27;20373;-50
2022/10/11 08:37:48;;;;;;;9.35;3.00;;;;;;;29.75;20.29;100106.19;5087053;27;20406;-48
2022/10/11 08:40:58;;;;;;;8.25;3.00;;;;;;;29.61;20.28;100094.28;5141998;27;20398;-52
2022/10/11 08:44:42;;;;;;;7.43;3.15;;;;;;;29.69;20.37;100088.94;5126203;27;20750;-50
2022/10/11 08:47:43;;;;;;;5.68;3.05;;;;;;;30.09;20.08;100093.53;5115875;27;20399;-50
2022/10/11 08:50:37;;;;;;;6.32;3.33;;;;;;;30.47;19.66;100065.16;5086889;27;20406;-51
2022/10/11 08:53:52;;;;;;;6.45;2.97;;;;;;;31.13;18.72;100094.38;5086686;27;20405;-52
2022/10/11 08:56:44;;;;;;;9.52;3.50;;;;;;;31.47;18.21;100083.25;5071336;27;20409;-54
2022/10/11 08:59:47;;;;;;;7.15;5.00;;;;;;;31.81;18.06;100077.53;5128181;27;20123;-49
2022/10/11 09:03:00;;;;;;;5.82;2.40;;;;;;;31.60;17.87;100079.19;5107282;27;20384;-48
2022/10/11 09:05:38;;;;;;;4.50;2.70;;;;;;;31.80;18.06;100062.38;5044049;28;20536;-51
2022/10/11 09:08:34;;;;;;;3.88;2.50;;;;;;;32.21;17.57;100043.22;5127372;27;20394;-49
2022/10/11 09:11:32;;;;;;;3.90;2.70;;;;;;;32.55;17.65;100072.34;5066665;28;20386;-50
2022/10/11 09:14:22;;;;;;;4.88;3.05;;;;;;;32.49;17.31;100063.13;5066468;28;20041;-50
2022/10/11 09:17:09;;;;;;;7.72;4.47;;;;;;;32.48;17.25;100063.31;5066357;28;20494;-49
2022/10/11 09:19:53;;;;;;;4.28;2.78;;;;;;;32.18;17.49;100065.97;5065290;28;20492;-51
2022/10/11 09:22:44;;;;;;;4.10;2.47;;;;;;;31.77;17.88;100060.03;5066404;28;20106;-52
2022/10/11 09:25:31;;;;;;;4.93;2.92;;;;;;;32.21;17.59;100062.06;5106852;27;20403;-52
2022/10/11 09:28:17;;;;;;;5.60;2.92;;;;;;;32.85;16.82;100059.72;5106893;28;20541;-49
2022/10/11 09:30:47;;;;;;;7.70;2.75;;;;;;;33.27;16.37;100056.34;5107184;28;20181;-54
2022/10/11 09:33:47;;;;;;;7.00;3.10;;;;;;;33.48;16.02;100051.81;5106930;27;20369;-53
2022/10/11 09:36:32;;;;;;;5.00;2.72;;;;;;;33.31;16.10;100041.47;5106984;28;20031;-52
2022/10/11 09:39:31;;;;;;;6.53;2.88;;;;;;;33.16;16.40;100041.47;5107026;28;20036;-53
2022/10/11 09:42:01;;;;;;;8.45;3.00;;;;;;;33.44;16.43;100031.66;5084044;28;20052;-53
2022/10/11 09:44:29;;;;;;;4.35;3.20;;;;;;;33.34;15.97;99997.97;5067336;28;20040;-54
2022/10/11 09:46:55;;;;;;;;;;;;;;;33.70;15.93;100027.59;5084692;28;20058;-55
2022/10/11 09:49:27;;;;;;;5.78;2.80;;;;;;;33.79;15.84;100021.03;5039803;28;19917;-52
2022/10/11 09:51:56;;;;;;;5.13;2.72;;;;;;;33.83;16.06;100025.00;5047327;28;20037;-52
2022/10/11 09:54:45;;;;;;;5.63;2.83;;;;;;;33.73;16.09;100016.41;5063854;28;20119;-50
2022/10/11 09:57:21;;;;;;;6.68;3.47;;;;;;;33.72;15.71;100018.25;5046875;28;20056;-53
2022/10/11 10:00:25;;;;;;;6.90;4.35;;;;;;;33.60;15.58;100020.59;5063542;28;20051;-49
2022/10/11 10:02:56;;;;;;;7.70;2.80;;;;;;;33.49;15.78;100010.34;5063365;28;20097;-49
2022/10/11 10:05:34;;;;;;;4.72;2.70;;;;;;;33.47;15.64;100015.09;5063635;28;20530;-51
2022/10/11 10:08:08;;;;;;;7.20;2.58;;;;;;;33.49;15.65;100010.34;5063374;28;20032;-55
2022/10/11 10:10:40;;;;;;;5.38;2.90;;;;;;;33.49;16.05;100009.53;5063496;28;20127;-53
2022/10/11 10:13:38;;;;;;;9.75;2.75;;;;;;;33.68;16.00;100011.59;5063182;28;20095;-56
2022/10/11 10:16:10;;;;;;;7.50;3.88;;;;;;;33.44;16.21;99979.59;5066834;28;20787;-53
2022/10/11 10:18:49;;;;;;;12.48;8.30;;;;;;;33.48;16.11;100000.59;5094701;28;20058;-52
2022/10/11 10:21:15;;;;;;;8.80;3.45;;;;;;;33.29;15.93;99979.63;5104938;28;20184;-51
2022/10/11 10:23:41;;;;;;;8.98;4.00;;;;;;;33.20;15.82;99970.00;5097578;28;20130;-49
2022/10/11 10:26:16;;;;;;;4.18;2.80;;;;;;;33.44;15.73;99988.53;5101313;28;20040;-50
2022/10/11 10:29:00;;;;;;;4.22;2.55;;;;;;;33.55;15.42;99987.19;5084411;28;20679;-51
2022/10/11 10:31:49;;;;;;;6.10;3.92;;;;;;;33.63;15.87;99981.63;5085148;28;20413;-54
2022/10/11 10:34:25;;;;;;;3.28;2.42;;;;;;;33.87;15.90;99972.31;5085609;28;20044;-53
2022/10/11 10:37:18;;;;;;;5.22;2.63;;;;;;;33.96;15.22;99977.38;5085575;28;20048;-53
2022/10/11 10:40:07;;;;;;;5.65;3.47;;;;;;;34.07;15.18;99970.63;5079683;28;20070;-51
2022/10/11 10:42:36;;;;;;;6.03;2.75;;;;;;;33.87;15.06;99945.31;5082782;28;20388;-49
2022/10/11 10:45:04;;;;;;;4.38;2.72;;;;;;;34.03;14.87;99972.84;5069867;28;20040;-49
2022/10/11 10:47:44;;;;;;;6.43;2.83;;;;;;;34.05;15.19;99969.97;5070835;28;20089;-50
2022/10/11 10:50:31;;;;;;;11.93;3.85;;;;;;;34.28;15.07;99962.44;5070476;28;20478;-49
2022/10/11 10:53:00;;;;;;;9.48;3.15;;;;;;;34.39;14.94;99956.47;5070503;28;20068;-49
2022/10/11 10:55:50;;;;;;;3.75;2.85;;;;;;;34.34;14.95;99940.06;5091924;28;20044;-53
2022/10/11 10:58:22;;;;;;;5.88;2.60;;;;;;;34.47;14.57;99954.66;5087931;28;20044;-51
2022/10/11 11:00:50;;;;;;;5.43;2.50;;;;;;;34.39;14.78;99955.66;5082203;28;20036;-49
2022/10/11 11:03:43;;;;;;;4.22;2.38;;;;;;;34.21;14.05;99945.41;5072617;28;20040;-47
2022/10/11 11:06:36;;;;;;;3.05;2.38;;;;;;;33.87;14.27;99940.75;5072571;28;20174;-50
2022/10/11 11:09:21;;;;;;;4.53;2.47;;;;;;;33.45;14.43;99938.09;5090077;28;20055;-53
2022/10/11 11:12:36;;;;;;;4.05;2.42;;;;;;;33.10;14.82;99934.44;5087868;28;20044;-48
2022/10/11 11:15:06;;;;;;;5.05;2.58;;;;;;;32.90;15.04;99931.53;5082624;28;20151;-50
2022/10/11 11:17:44;;;;;;;6.97;2.90;;;;;;;32.74;15.22;99931.75;5071277;28;20042;-52
2022/10/11 11:20:26;;;;;;;5.82;2.47;;;;;;;32.44;15.59;99927.41;5078930;28;20040;-52
2022/10/11 11:23:10;;;;;;;15.07;3.10;;;;;;;31.13;16.01;99921.59;5088504;28;20036;-53
2022/10/11 11:25:52;;;;;;;5.05;3.13;;;;;;;29.01;17.36;99919.50;5087573;28;20153;-50
2022/10/11 11:29:06;;;;;;;8.20;4.90;;;;;;;26.92;18.77;99910.00;5070734;28;20048;-50
2022/10/11 11:31:49;;;;;;;4.15;2.20;;;;;;;25.45;20.35;99902.78;5073524;28;20423;-56
2022/10/11 11:34:54;;;;;;;7.38;2.00;;;;;;;24.74;20.82;99897.72;5090276;28;20032;-52
2022/10/11 11:37:40;;;;;;;4.90;2.05;;;;;;;24.47;21.08;99901.00;5085648;28;20055;-53
2022/10/11 11:40:25;;;;;;;2.50;1.60;;;;;;;23.66;21.59;99895.69;5088266;28;20507;-51
2022/10/11 11:42:54;;;;;;;4.40;1.75;;;;;;;22.73;22.64;99874.28;5077799;28;20041;-52
2022/10/11 11:45:24;;;;;;;3.72;1.55;;;;;;;22.41;23.33;99891.91;5088640;28;20044;-49
2022/10/11 11:48:03;;;;;;;2.90;1.85;;;;;;;21.73;23.86;99887.53;5084907;28;20048;-52
2022/10/11 11:50:36;;;;;;;3.80;2.25;;;;;;;21.12;24.28;99881.59;5060988;28;20055;-50
2022/10/11 11:53:14;;;;;;;4.93;2.17;;;;;;;20.53;25.11;99878.03;5062703;28;20036;-50
2022/10/11 11:56:03;;;;;;;9.43;2.60;;;;;;;20.00;26.08;99888.88;5079866;28;20093;-48
2022/10/11 11:58:54;;;;;;;4.93;1.98;;;;;;;19.86;26.08;99888.06;5072361;28;20043;-52
2022/10/11 12:01:28;;;;;;;8.52;2.20;;;;;;;19.72;26.38;99879.44;5088341;28;20101;-50
2022/10/11 12:03:57;;;;;;;4.88;1.50;;;;;;;19.35;26.73;99883.69;5071373;28;20044;-52
2022/10/11 12:06:32;;;;;;;9.68;6.05;;;;;;;19.01;27.71;99880.63;5085673;28;20048;-51
2022/10/11 12:09:17;;;;;;;4.65;2.20;;;;;;;18.68;28.19;99874.13;5087479;28;20055;-50
2022/10/11 12:11:54;;;;;;;6.53;1.95;;;;;;;18.55;28.74;99872.25;5084393;28;20056;-53
2022/10/11 12:14:26;;;;;;;5.18;2.15;;;;;;;18.84;28.47;99869.53;5070720;28;20577;-50
2022/10/11 12:17:15;;;;;;;4.28;1.83;;;;;;;18.98;28.58;99865.03;5088870;28;20135;-50
2022/10/11 12:20:16;;;;;;;4.93;1.73;;;;;;;18.39;29.15;99834.66;5088202;27;20083;-52
2022/10/11 12:22:48;;;;;;;6.25;1.75;;;;;;;18.12;29.48;99860.91;5082276;28;20163;-48
2022/10/11 12:25:14;;;;;;;8.35;3.72;;;;;;;17.83;29.38;99858.41;5087804;28;20124;-50
2022/10/11 12:27:47;;;;;;;6.75;1.90;;;;;;;17.49;29.87;99852.53;5089734;28;20047;-51
2022/10/11 12:31:01;;;;;;;5.78;2.10;;;;;;;17.19;30.21;99855.19;5087550;28;20047;-52
2022/10/11 12:33:31;;;;;;;4.68;1.92;;;;;;;17.51;29.80;99857.69;5030864;28;20056;-47
2022/10/11 12:36:00;;;;;;;6.53;2.60;;;;;;;17.67;29.37;99851.47;5066461;28;20121;-52
2022/10/11 12:38:38;;;;;;;4.35;2.83;;;;;;;17.86;29.40;99847.69;5049775;28;20518;-51
2022/10/11 12:41:07;;;;;;;2.70;1.77;;;;;;;17.92;29.68;99845.53;5050420;28;20049;-48
2022/10/11 12:43:55;;;;;;;4.32;1.60;;;;;;;17.60;30.17;99841.38;5044439;28;20540;-49
2022/10/11 12:46:27;;;;;;;4.07;1.63;;;;;;;17.19;30.52;99841.22;5036559;28;20060;-53